Startpagina
METAR-TAF:

METAR-TAF

Vliegvelden :

Lowell, Idaho, Verenigde Staten

breedte: 46-08-39N, lengte: 115-35-47W, hoogte: 480 m

Actueel weer

Dit bericht is 13 minuten geleden gemaakt, om 12:52 UTC
Weinig wind
Temperatuur 12°C
Vochtigheid 76%
Druk 1019 hPa

METAR: KP69 171252Z AUTO 00000KT 12/08 A3009 RMK AO1 SLP174 T01220078

Tijdstip: 06:05 (13:05 UTC)


TAF: ontbreekt

Waarnemingen en weersverwachtingen van meer dan 4000 vliegvelden (METAR en TAF).

De beschikbare stations zijn de gele en rode punten op de kaart.

Ga met uw muis naar het station om de naam te zien.

Klik dan om waarnemingen en weersverwachtingen te zien.

kaart wijzigen: klik op de groene knoppen met een zwart kruis om in te zoomen, op de groene knop met een streepje om uit te zoomen of op de groene pijlen voor aangrenzende kaarten.


METAR-TAF: